EW3870 Shanghai CN current weather conditions

sailwx.info

Wind from 122

Air temperature 8.3° C
Dewpoint 1.3° C

Last reported at 2020-Jan-19 09:00 UTC.
Time now 2020-Jan-19 09:46 UTC

Location: N 31°14' E 121°35'.
View on Google Maps.

See reports from other nearby stations

  
Tides and Currents Weather Stations Pressure Air Temp Water Temp Dewpoint Dewpoint Depression Visibility Wind Speed Wind Dir Waves Ship Positions
date/time (UTC)wind fromknots sea level pressurealtimeterstation pressurevisibilityair tempwater tempwave heightnotes
2020-Jan-19 09:00 122 8.3
2020-Jan-19 08:50 8.3
2020-Jan-19 08:40 286 1 gusting 3 8.9
2020-Jan-19 08:30 8.9
2020-Jan-19 08:20 8.9
2020-Jan-19 08:10 8.9
2020-Jan-19 08:00 235 1 gusting 3 8.9
2020-Jan-19 07:50 320 2 gusting 4 8.9
2020-Jan-19 07:40 306 2 gusting 6 9.4
2020-Jan-19 07:30 295 3 gusting 5 9.4
2020-Jan-19 07:20 236 3 gusting 6 9.4
2020-Jan-19 07:10 235 0 gusting 2 9.4
2020-Jan-19 07:00 267 1 gusting 3 9.4
2020-Jan-19 06:50 282 1 gusting 5 8.9
2020-Jan-19 06:40 300 4 gusting 8 9.4
2020-Jan-19 06:30 317 2 gusting 3 9.4
2020-Jan-19 06:20 8.9
2020-Jan-19 06:10 062 8.9
2020-Jan-19 06:00 005 0 gusting 5 8.9
2020-Jan-19 05:50 264 2 gusting 6 8.9
2020-Jan-19 05:40 032 8.9
2020-Jan-19 05:30 143 8.9
2020-Jan-19 05:20 256 3 gusting 7 8.9
2020-Jan-19 05:10 249 0 gusting 8 8.9
2020-Jan-19 05:00 218 8.3
2020-Jan-19 04:50 320 2 gusting 7 7.8
2020-Jan-19 04:40 275 4 gusting 7 7.8
2020-Jan-19 04:30 7.8
2020-Jan-19 04:20 265 6 gusting 9 7.8
2020-Jan-19 04:10 250 4 gusting 9 7.2
2020-Jan-19 04:00 286 1 gusting 6 7.2
2020-Jan-19 03:50 243 3 gusting 7 6.7
2020-Jan-19 03:40 237 2 gusting 5 6.7
2020-Jan-19 03:30 282 4 gusting 10 6.7
2020-Jan-19 03:20 348 0 gusting 7 6.1
2020-Jan-19 03:10 252 1 gusting 4 6.1
2020-Jan-19 03:00 293 0 gusting 2 5.6
2020-Jan-19 02:50 309 5 gusting 7 5.6
2020-Jan-19 02:40 298 7 gusting 10 6.1
2020-Jan-19 02:30 317 4 gusting 7 5.6
2020-Jan-19 02:20 325 2 gusting 8 5.6
2020-Jan-19 02:10 296 2 gusting 7 5.6
2020-Jan-19 02:00 015 2 gusting 6 5.6
2020-Jan-19 01:50 313 2 gusting 9 5.0
2020-Jan-19 01:40 340 3 gusting 9 5.0
2020-Jan-19 01:30 275 2 gusting 6 5.0
2020-Jan-19 01:20 249 3 gusting 7 5.0
2020-Jan-19 01:10 300 1 gusting 5 5.0
2020-Jan-19 01:00 292 5 gusting 7 5.0
2020-Jan-19 00:50 340 1 gusting 6 4.4
2020-Jan-19 00:40 311 2 gusting 6 4.4
2020-Jan-19 00:30 346 0 gusting 3 4.4
2020-Jan-19 00:20 293 2 gusting 7 4.4
2020-Jan-19 00:10 308 2 gusting 6 4.4
2020-Jan-19 00:00 294 1 gusting 4 4.4
2020-Jan-18 23:50 269 0 gusting 5 4.4
2020-Jan-18 23:40 288 1 gusting 3 4.4
2020-Jan-18 23:30 282 1 gusting 4 4.4
2020-Jan-18 23:20 295 3 gusting 6 4.4
2020-Jan-18 23:10 313 0 gusting 4 4.4
2020-Jan-18 23:00 295 1 gusting 4 4.4
2020-Jan-18 22:50 324 2 gusting 6 3.9
2020-Jan-18 22:40 288 2 gusting 6 3.9
2020-Jan-18 22:30 279 1 gusting 3 3.9
2020-Jan-18 22:20 3.9
2020-Jan-18 22:10 292 1 gusting 4 3.9
2020-Jan-18 22:00 297 0 gusting 3 3.9
2020-Jan-18 21:50 279 2 gusting 3 3.9
2020-Jan-18 21:40 280 2 gusting 3 3.9
2020-Jan-18 21:30 283 0 gusting 3 4.4
2020-Jan-18 21:20 337 0 gusting 3 4.4
2020-Jan-18 21:10 308 0 gusting 4 4.4
2020-Jan-18 21:00 280 2 gusting 5 4.4
2020-Jan-18 20:50 304 2 gusting 4 4.4
2020-Jan-18 20:40 270 2 gusting 6 4.4
2020-Jan-18 20:30 4.4
2020-Jan-18 20:20 4.4
2020-Jan-18 20:10 4.4
2020-Jan-18 20:00 303 4.4
2020-Jan-18 19:50 290 1 gusting 3 4.4
2020-Jan-18 19:40 317 1 gusting 3 4.4
2020-Jan-18 19:30 305 2 gusting 4 4.4
2020-Jan-18 19:20 298 4.4
2020-Jan-18 19:10 294 0 gusting 2 4.4
2020-Jan-18 19:00 294 0 gusting 5 4.4
2020-Jan-18 18:50 4.4
2020-Jan-18 18:40 314 1 gusting 3 4.4
2020-Jan-18 18:30 325 0 gusting 3 4.4
2020-Jan-18 18:20 336 4.4
2020-Jan-18 18:10 310 1 gusting 6 4.4
2020-Jan-18 18:00 135 2 gusting 3 4.4
2020-Jan-18 17:50 324 0 gusting 4 4.4
2020-Jan-18 17:40 4.4
2020-Jan-18 17:30 4.4
2020-Jan-18 17:20 4.4
2020-Jan-18 17:10 312 1 gusting 3 4.4
2020-Jan-18 17:00 318 4.4
2020-Jan-18 16:50 4.4
2020-Jan-18 16:40 318 4.4
2020-Jan-18 16:30 318 0 gusting 2 4.4
2020-Jan-18 16:20 4.4
2020-Jan-18 16:10 4.4
2020-Jan-18 16:00 4.4
2020-Jan-18 15:50 319 4.4
2020-Jan-18 15:40 321 1 gusting 3 4.4
2020-Jan-18 15:30 321 4.4
2020-Jan-18 15:20 4.4
2020-Jan-18 15:10 4.4
2020-Jan-18 15:00 4.4
2020-Jan-18 14:50 321 1 gusting 2 4.4
2020-Jan-18 14:40 4.4
2020-Jan-18 14:30 5.0
2020-Jan-18 14:20 5.0
2020-Jan-18 14:10 321 4.4
2020-Jan-18 14:00 4.4
2020-Jan-18 13:50 321 1 gusting 3 4.4
2020-Jan-18 13:40 4.4
2020-Jan-18 13:30 283 2 gusting 5 5.0
2020-Jan-18 13:20 210 5.0
2020-Jan-18 13:10 5.0
2020-Jan-18 13:00 5.0
2020-Jan-18 12:50 210 5.0
2020-Jan-18 12:40 4.4
2020-Jan-18 12:30 210 0 gusting 1 4.4
2020-Jan-18 12:20 4.4
2020-Jan-18 12:10 4.4
2020-Jan-18 12:00 278 1 gusting 3 4.4
2020-Jan-18 11:50 4.4
2020-Jan-18 11:40 4.4
2020-Jan-18 11:30 277 0 gusting 2 4.4
2020-Jan-18 11:20 272 0 gusting 3 4.4
2020-Jan-18 11:10 271 2 gusting 5 4.4
2020-Jan-18 11:00 269 0 gusting 3 4.4
2020-Jan-18 10:50 265 0 gusting 4 4.4
2020-Jan-18 10:40 4.4
2020-Jan-18 10:30 303 1 gusting 3 4.4
2020-Jan-18 10:20 4.4
2020-Jan-18 10:10 306 1 gusting 3 4.4
2020-Jan-18 10:00 4.4
2020-Jan-18 09:50 4.4
2020-Jan-18 09:40 4.4
2020-Jan-18 09:30 4.4
2020-Jan-18 09:20 4.4
2020-Jan-18 09:10 304 5.0
2020-Jan-18 09:00 5.0
2020-Jan-18 08:50 300 5.0
2020-Jan-18 08:40 5.0
2020-Jan-18 08:30 280 0 gusting 3 5.0
2020-Jan-18 08:20 5.0
2020-Jan-18 08:10 062 1 gusting 3 5.0
2020-Jan-18 08:00 047 5.0
2020-Jan-18 07:50 284 5 gusting 6 4.4
2020-Jan-18 07:40 298 1 gusting 5 4.4
2020-Jan-18 07:30 271 3 gusting 5 4.4
2020-Jan-18 07:20 328 1 gusting 3 4.4
2020-Jan-18 07:10 290 2 gusting 5 4.4
2020-Jan-18 07:00 012 2 gusting 4 5.0
2020-Jan-18 06:50 293 1 gusting 7 4.4
2020-Jan-18 06:40 336 1 gusting 3 5.0
2020-Jan-18 06:30 020 3 gusting 6 5.0
2020-Jan-18 06:20 016 1 gusting 4 4.4
2020-Jan-18 06:10 019 1 gusting 5 4.4
2020-Jan-18 06:00 338 4.4
2020-Jan-18 05:50 4.4
2020-Jan-18 05:40 015 1 gusting 4 4.4
2020-Jan-18 05:30 014 0 gusting 3 4.4
2020-Jan-18 05:20 337 1 gusting 5 4.4
2020-Jan-18 05:10 009 0 gusting 4 5.0
2020-Jan-18 05:00 285 2 gusting 6 5.0
2020-Jan-18 04:50 358 0 gusting 2 5.0
2020-Jan-18 04:40 331 1 gusting 2 5.0
2020-Jan-18 04:30 320 1 gusting 3 5.0
2020-Jan-18 04:20 353 2 gusting 9 4.4
2020-Jan-18 04:10 296 4 gusting 6 4.4
2020-Jan-18 04:00 338 1 gusting 3 4.4
2020-Jan-18 03:50 334 3 gusting 6 4.4
2020-Jan-18 03:40 333 1 gusting 3 4.4
2020-Jan-18 03:30 313 1 gusting 6 4.4
2020-Jan-18 03:20 329 4.4
2020-Jan-18 03:10 294 0 gusting 2 4.4
2020-Jan-18 03:00 263 1 gusting 4 4.4
2020-Jan-18 02:50 310 1 gusting 5 3.9
2020-Jan-18 02:40 078 0 gusting 3 3.9
2020-Jan-18 02:30 315 2 gusting 6 3.9
2020-Jan-18 02:20 296 3 gusting 7 3.9
2020-Jan-18 02:10 300 2 gusting 5 3.9
2020-Jan-18 02:00 013 1 gusting 8 3.9
2020-Jan-18 01:50 331 0 gusting 3 3.9
2020-Jan-18 01:40 3.9
2020-Jan-18 01:30 049 3.9
2020-Jan-18 01:20 040 4 gusting 10 3.9
2020-Jan-18 01:10 3.9
2020-Jan-18 01:00 044 0 gusting 3 3.9
2020-Jan-18 00:50 3.9
2020-Jan-18 00:40 023 1 gusting 3 3.9
2020-Jan-18 00:30 031 0 gusting 2 3.9
2020-Jan-18 00:20 057 2 gusting 6 3.9
2020-Jan-18 00:10 018 1 gusting 2 3.9
2020-Jan-18 00:00 014 1 gusting 3 3.9
2020-Jan-17 23:50 012 0 gusting 5 3.9
2020-Jan-17 23:40 309 3 gusting 8 3.9
2020-Jan-17 23:30 314 3.9
2020-Jan-17 23:20 319 1 gusting 3 3.9
2020-Jan-17 23:10 325 0 gusting 6 3.9
2020-Jan-17 23:00 292 0 gusting 3 3.9
2020-Jan-17 22:50 314 2 gusting 5 3.9
2020-Jan-17 22:40 300 2 gusting 4 3.9
2020-Jan-17 22:30 340 1 gusting 5 3.9
2020-Jan-17 22:20 280 3 gusting 6 3.9
2020-Jan-17 22:10 313 4 gusting 9 3.9
2020-Jan-17 22:00 010 2 gusting 5 3.9
2020-Jan-17 21:50 325 0 gusting 2 3.9
2020-Jan-17 21:40 300 0 gusting 3 3.9
2020-Jan-17 21:30 306 3.9
2020-Jan-17 21:20 312 5 gusting 9 3.9
2020-Jan-17 21:10 328 1 gusting 3 3.9
2020-Jan-17 21:00 020 2 gusting 8 3.9
2020-Jan-17 20:50 314 2 gusting 6 3.9
2020-Jan-17 20:40 292 2 gusting 5 3.9
2020-Jan-17 20:30 296 4 gusting 7 3.9
2020-Jan-17 20:20 3.9
2020-Jan-17 20:10 295 3 gusting 8 3.9
2020-Jan-17 20:00 329 3.9
2020-Jan-17 19:50 293 0 gusting 5 3.9
2020-Jan-17 19:40 314 3 gusting 9 3.9
2020-Jan-17 19:30 3.9
2020-Jan-17 19:20 3.9
2020-Jan-17 19:10 3.9
2020-Jan-17 19:00 318 2 gusting 6 3.9
2020-Jan-17 18:50 296 1 gusting 6 3.9
2020-Jan-17 18:40 301 3 gusting 6 3.9
2020-Jan-17 18:30 282 1 gusting 6 3.9
2020-Jan-17 18:20 333 1 gusting 6 3.9
2020-Jan-17 18:10 282 2 gusting 4 3.9
2020-Jan-17 18:00 315 2 gusting 3 3.9
2020-Jan-17 17:50 310 2 gusting 6 3.9
2020-Jan-17 17:40 313 2 gusting 6 4.4
2020-Jan-17 17:30 314 4.4
2020-Jan-17 17:20 305 3 gusting 8 4.4
2020-Jan-17 17:10 287 3 gusting 7 4.4
2020-Jan-17 17:00 281 3 gusting 8 4.4
2020-Jan-17 16:50 307 4 gusting 6 4.4
2020-Jan-17 16:40 298 2 gusting 8 4.4
2020-Jan-17 16:30 300 3 gusting 7 4.4
2020-Jan-17 16:20 353 5 gusting 7 4.4
2020-Jan-17 16:10 280 5 gusting 8 4.4
2020-Jan-17 16:00 289 2 gusting 6 4.4
2020-Jan-17 15:50 302 4.4
2020-Jan-17 15:40 279 5 gusting 9 4.4
2020-Jan-17 15:30 277 4.4
2020-Jan-17 15:20 319 1 gusting 3 4.4
2020-Jan-17 15:10 4.4
2020-Jan-17 15:00 337 1 gusting 6 5.0
2020-Jan-17 14:50 351 1 gusting 4 5.0
2020-Jan-17 14:40 310 3 gusting 9 5.0
2020-Jan-17 14:30 327 2 gusting 6 5.0
2020-Jan-17 14:20 281 1 gusting 3 5.0
2020-Jan-17 14:10 293 5 gusting 6 5.0
2020-Jan-17 14:00 301 2 gusting 5 5.0
2020-Jan-17 13:50 290 4 gusting 6 5.0
2020-Jan-17 13:40 335 1 gusting 3 5.0
2020-Jan-17 13:30 293 0 gusting 3 5.0
2020-Jan-17 13:20 295 3 gusting 6 5.0
2020-Jan-17 13:10 301 2 gusting 6 5.0
2020-Jan-17 13:00 310 3 gusting 7 5.0
2020-Jan-17 12:50 259 0 gusting 6 5.0
2020-Jan-17 12:40 298 1 gusting 3 5.0
2020-Jan-17 12:30 303 5 gusting 7 5.0
2020-Jan-17 12:20 313 2 gusting 6 5.0
2020-Jan-17 12:10 324 4 gusting 6 5.0
2020-Jan-17 12:00 291 2 gusting 6 5.0
2020-Jan-17 11:50 272 2 gusting 7 5.6
2020-Jan-17 11:40 306 2 gusting 6 5.6
2020-Jan-17 11:30 296 1 gusting 6 5.6
2020-Jan-17 11:20 293 4 gusting 7 5.6
2020-Jan-17 11:10 304 6 gusting 9 5.6
2020-Jan-17 11:00 294 2 gusting 6 5.6
2020-Jan-17 10:50 296 3 gusting 6 5.6
2020-Jan-17 10:40 313 4 gusting 9 5.6
2020-Jan-17 10:30 304 5 gusting 8 5.6
2020-Jan-17 10:20 297 2 gusting 8 5.6
2020-Jan-17 10:10 305 4 gusting 6 5.6
2020-Jan-17 10:00 337 3 gusting 4 5.6
2020-Jan-17 09:50 314 0 gusting 6 5.6
2020-Jan-17 09:40 5.6
2020-Jan-17 09:30 307 3 gusting 6 5.6
2020-Jan-17 09:20 315 2 gusting 6 5.6
2020-Jan-17 09:10 290 2 gusting 7 5.6
2020-Jan-17 09:00 282 2 gusting 6 5.6